createdAt,value
2022-12-23T00:02:19.290Z,87.32
2022-12-23T00:07:39.891Z,87.57
2022-12-23T00:13:20.163Z,88.17
2022-12-23T00:18:42.201Z,88.38
2022-12-23T00:24:02.593Z,88.44
2022-12-23T00:29:23.185Z,88.58
2022-12-23T00:34:43.872Z,88.72
2022-12-23T00:40:40.442Z,88.69
2022-12-23T00:46:00.779Z,88.80
2022-12-23T00:51:21.266Z,88.93
2022-12-23T00:56:41.370Z,89.11
2022-12-23T01:02:20.888Z,89.03
2022-12-23T01:07:42.495Z,89.09
2022-12-23T01:13:04.249Z,89.18
2022-12-23T01:18:24.775Z,89.25
2022-12-23T01:23:45.161Z,89.44
2022-12-23T01:29:05.660Z,89.22
2022-12-23T01:34:31.056Z,89.18
2022-12-23T01:39:54.819Z,89.09
2022-12-23T01:45:35.648Z,88.91
2022-12-23T01:51:04.698Z,88.99
2022-12-23T01:56:27.847Z,88.96
2022-12-23T02:02:07.621Z,89.20
2022-12-23T02:07:47.343Z,89.29
2022-12-23T02:13:25.030Z,89.33
2022-12-23T02:19:04.690Z,89.41
2022-12-23T02:24:59.716Z,89.42
2022-12-23T02:30:45.037Z,89.40
2022-12-23T02:36:38.991Z,89.35
2022-12-23T02:42:51.396Z,89.22
2022-12-23T02:48:22.690Z,88.79
2022-12-23T02:53:53.891Z,88.83
2022-12-23T02:59:19.591Z,88.76
2022-12-23T03:04:42.332Z,88.62
2022-12-23T03:10:32.006Z,88.61
2022-12-23T03:16:12.421Z,88.70
2022-12-23T03:21:57.160Z,88.66
2022-12-23T03:27:26.332Z,88.14
2022-12-23T03:32:48.690Z,87.91
2022-12-23T03:38:13.808Z,87.59
2022-12-23T03:43:43.495Z,87.45
2022-12-23T03:49:15.405Z,87.44
2022-12-23T03:54:55.097Z,87.46
2022-12-23T04:00:15.955Z,87.26
2022-12-23T04:05:40.271Z,87.29
2022-12-23T04:11:01.761Z,87.25
2022-12-23T04:16:23.063Z,87.33
2022-12-23T04:21:43.595Z,87.01
2022-12-23T04:27:04.500Z,86.59
2022-12-23T04:32:26.693Z,86.36
2022-12-23T04:37:47.500Z,86.27
2022-12-23T04:43:08.000Z,86.07
2022-12-23T04:48:28.827Z,86.38
2022-12-23T04:53:49.541Z,86.53
2022-12-23T04:59:10.578Z,86.67
2022-12-23T05:04:31.218Z,86.65
2022-12-23T05:09:51.739Z,86.85
2022-12-23T05:15:12.415Z,87.02
2022-12-23T05:20:32.511Z,86.63
2022-12-23T05:25:53.718Z,86.70
2022-12-23T05:31:14.778Z,86.62
2022-12-23T05:36:35.200Z,86.52
2022-12-23T05:41:55.785Z,86.07
2022-12-23T05:47:16.246Z,86.18
2022-12-23T05:52:37.429Z,86.25
2022-12-23T05:57:58.023Z,86.42
2022-12-23T06:03:18.765Z,86.17
2022-12-23T06:08:39.673Z,86.41
2022-12-23T06:14:00.342Z,86.61
2022-12-23T06:19:20.722Z,87.21
2022-12-23T06:24:41.360Z,87.19
2022-12-23T06:30:01.987Z,87.38
2022-12-23T06:35:22.963Z,87.08
2022-12-23T06:40:43.818Z,86.79
2022-12-23T06:46:04.493Z,86.66
2022-12-23T06:51:24.991Z,87.22
2022-12-23T06:56:45.996Z,87.68
2022-12-23T07:02:06.702Z,87.80
2022-12-23T07:07:27.164Z,87.93
2022-12-23T07:12:50.863Z,87.59
2022-12-23T07:18:11.898Z,87.49
2022-12-23T07:23:32.516Z,87.45
2022-12-23T07:28:53.173Z,87.77
2022-12-23T07:34:13.520Z,88.00
2022-12-23T07:39:34.736Z,88.16
2022-12-23T07:44:55.404Z,88.05
2022-12-23T07:50:17.104Z,87.74
2022-12-23T07:55:37.776Z,87.70
2022-12-23T08:01:08.050Z,87.90
2022-12-23T08:14:33.606Z,87.30
2022-12-23T08:19:54.160Z,87.35
2022-12-23T08:25:14.860Z,87.33
2022-12-23T08:30:35.303Z,87.18
2022-12-23T08:35:56.013Z,87.29
2022-12-23T08:41:20.528Z,87.33
2022-12-23T08:46:41.359Z,86.86
2022-12-23T08:52:03.556Z,86.54
2022-12-23T08:57:24.985Z,86.32
2022-12-23T09:02:46.067Z,86.37
2022-12-23T09:08:06.828Z,86.53
2022-12-23T09:13:34.884Z,86.33
2022-12-23T09:18:56.885Z,86.46
2022-12-23T09:24:17.228Z,86.78
2022-12-23T09:29:37.996Z,86.73
2022-12-23T09:34:58.621Z,86.75
2022-12-23T09:40:21.343Z,86.64
2022-12-23T09:45:58.855Z,86.65
2022-12-23T09:51:23.201Z,86.49
2022-12-23T09:57:03.010Z,86.11
2022-12-23T10:02:46.734Z,85.57
2022-12-23T10:08:14.165Z,83.66
2022-12-23T10:13:40.613Z,81.76
2022-12-23T10:19:26.093Z,81.18
2022-12-23T10:24:46.919Z,80.47
2022-12-23T10:30:42.690Z,76.82
2022-12-23T10:36:34.822Z,64.82
2022-12-23T10:42:07.241Z,60.71
2022-12-23T10:47:50.504Z,64.89
2022-12-23T10:53:22.197Z,69.74
2022-12-23T10:58:46.548Z,71.21
2022-12-23T11:04:19.508Z,71.45
2022-12-23T11:09:44.073Z,70.61
2022-12-23T11:15:05.093Z,68.90
2022-12-23T11:20:25.818Z,68.35
2022-12-23T11:25:46.803Z,67.50
2022-12-23T11:31:11.838Z,66.29
2022-12-23T11:36:34.163Z,65.42
2022-12-23T11:42:02.751Z,63.73
2022-12-23T11:47:25.334Z,63.00
2022-12-23T11:52:54.801Z,61.88
2022-12-23T11:58:21.254Z,61.74
2022-12-23T12:03:48.408Z,60.94
2022-12-23T12:09:13.175Z,62.02
2022-12-23T12:14:42.192Z,60.08
2022-12-23T12:20:17.865Z,58.39
2022-12-23T12:26:02.536Z,57.21
2022-12-23T12:31:30.286Z,57.28
2022-12-23T12:37:08.700Z,56.67
2022-12-23T12:42:39.587Z,56.73
2022-12-23T12:48:22.575Z,57.03
2022-12-23T12:54:22.356Z,57.42
2022-12-23T12:59:44.044Z,58.96
2022-12-23T13:05:25.836Z,60.31
2022-12-23T13:10:55.675Z,62.46
2022-12-23T13:16:34.907Z,64.12
2022-12-23T13:22:07.699Z,64.78
2022-12-23T13:27:33.704Z,65.82
2022-12-23T13:33:08.938Z,66.23
2022-12-23T13:38:53.866Z,66.34
2022-12-23T13:44:15.478Z,66.39
2022-12-23T13:50:02.469Z,66.58
2022-12-23T13:55:44.666Z,66.82
2022-12-23T14:01:08.237Z,67.61
2022-12-23T14:06:28.740Z,67.65
2022-12-23T14:11:50.018Z,67.82
2022-12-23T14:17:20.198Z,68.25
2022-12-23T14:22:54.860Z,68.56
2022-12-23T14:28:34.929Z,68.72
2022-12-23T14:34:03.088Z,69.13
2022-12-23T14:39:33.886Z,70.15
2022-12-23T14:44:54.563Z,69.53
2022-12-23T14:50:35.240Z,69.64
2022-12-23T14:56:08.042Z,69.66
2022-12-23T15:01:41.589Z,70.13
2022-12-23T15:07:07.165Z,70.04
2022-12-23T15:12:34.967Z,69.87
2022-12-23T15:18:04.170Z,70.29
2022-12-23T15:23:24.863Z,71.18
2022-12-23T15:28:45.566Z,70.86
2022-12-23T15:34:16.887Z,70.95
2022-12-23T15:39:41.657Z,70.86
2022-12-23T15:45:27.006Z,71.04
2022-12-23T15:50:50.709Z,70.80
2022-12-23T15:56:22.308Z,70.97
2022-12-23T16:01:43.193Z,70.70
2022-12-23T16:07:03.632Z,70.71
2022-12-23T16:12:26.896Z,70.43
2022-12-23T16:17:47.127Z,70.65
2022-12-23T16:23:10.469Z,70.87
2022-12-23T16:28:43.487Z,70.69
2022-12-23T16:34:07.718Z,71.37
2022-12-23T16:39:28.346Z,71.63
2022-12-23T16:44:49.075Z,71.68
2022-12-23T16:50:14.436Z,71.51
2022-12-23T16:55:34.897Z,71.54
2022-12-23T17:00:55.880Z,71.38
2022-12-23T17:06:17.126Z,71.59
2022-12-23T17:11:50.169Z,71.70
2022-12-23T17:17:16.813Z,72.01
2022-12-23T17:22:38.004Z,71.96
2022-12-23T17:27:59.177Z,71.89
2022-12-23T17:33:20.519Z,71.48
2022-12-23T17:38:41.011Z,71.35
2022-12-23T17:44:02.133Z,71.38
2022-12-23T17:49:22.690Z,71.64
2022-12-23T17:54:45.376Z,71.80
2022-12-23T18:00:06.973Z,71.63
2022-12-23T18:05:36.131Z,71.64
2022-12-23T18:10:58.290Z,71.92
2022-12-23T18:16:18.945Z,71.82
2022-12-23T18:21:39.495Z,71.84
2022-12-23T18:27:00.427Z,71.76
2022-12-23T18:32:25.329Z,72.04
2022-12-23T18:37:45.850Z,72.59
2022-12-23T18:43:06.793Z,72.84
2022-12-23T18:48:27.399Z,72.70
2022-12-23T18:53:48.315Z,72.69
2022-12-23T18:59:30.145Z,72.80
2022-12-23T19:04:50.824Z,72.74
2022-12-23T19:10:15.573Z,72.58
2022-12-23T19:15:35.889Z,72.59
2022-12-23T19:20:56.754Z,72.42
2022-12-23T19:26:17.446Z,72.49
2022-12-23T19:31:38.051Z,73.03
2022-12-23T19:36:58.928Z,72.91
2022-12-23T19:42:20.064Z,72.88
2022-12-23T19:47:40.653Z,73.40
2022-12-23T19:53:01.277Z,73.40
2022-12-23T19:58:22.768Z,73.48
2022-12-23T20:03:44.839Z,73.31
2022-12-23T20:09:07.400Z,73.17
2022-12-23T20:14:32.308Z,73.19
2022-12-23T20:19:54.838Z,73.29
2022-12-23T20:25:15.581Z,73.42
2022-12-23T20:30:36.224Z,73.46
2022-12-23T20:35:56.607Z,73.39
2022-12-23T20:41:20.705Z,73.45
2022-12-23T20:46:41.300Z,73.93
2022-12-23T20:52:01.863Z,74.05
2022-12-23T20:57:23.208Z,74.05
2022-12-23T21:02:43.928Z,74.24
2022-12-23T21:08:04.511Z,73.86
2022-12-23T21:13:25.442Z,74.06
2022-12-23T21:18:53.126Z,74.16
2022-12-23T21:24:14.340Z,74.07
2022-12-23T21:29:34.643Z,73.90
2022-12-23T21:34:54.873Z,74.10
2022-12-23T21:40:15.389Z,74.28
2022-12-23T21:45:35.925Z,74.60
2022-12-23T21:51:12.181Z,74.46
2022-12-23T21:56:33.003Z,74.82
2022-12-23T22:01:53.448Z,74.99
2022-12-23T22:07:13.995Z,75.06
2022-12-23T22:12:34.321Z,74.89
2022-12-23T22:17:54.687Z,74.87
2022-12-23T22:23:15.484Z,74.56
2022-12-23T22:28:37.154Z,74.76
2022-12-23T22:33:57.722Z,74.85
2022-12-23T22:39:21.705Z,74.97
2022-12-23T22:44:42.328Z,74.87
2022-12-23T22:50:03.622Z,74.88
2022-12-23T22:55:27.038Z,74.41
2022-12-23T23:00:47.756Z,74.53
2022-12-23T23:06:09.893Z,74.63
2022-12-23T23:11:30.414Z,74.72
2022-12-23T23:16:51.370Z,74.79
2022-12-23T23:22:11.977Z,74.77
2022-12-23T23:27:33.180Z,75.06
2022-12-23T23:32:53.626Z,75.17
2022-12-23T23:38:14.206Z,75.07
2022-12-23T23:43:34.730Z,75.14
2022-12-23T23:48:55.296Z,75.04
2022-12-23T23:54:16.449Z,75.20
2022-12-23T23:59:36.884Z,75.49
